Time;durP1;ratioP1;P1;durP2;ratioP2;P2;SDS_P1;SDS_P2;PMS_P1;PMS_P2;Temp;Humidity;BMP_temperature;BMP_pressure;BME280_temperature;BME280_humidity;BME280_pressure;Samples;Min_cycle;Max_cycle;Signal;HPM_P1;HPM_P2
2023/03/13 00:00:30;;;;;;;;;;;10.80;99.90;;;;;;5052292;28;19924;-79
2023/03/13 00:02:58;;;;;;;;;;;10.80;99.90;;;;;;5054000;28;20438;-79
2023/03/13 00:05:25;;;;;;;;;;;10.80;99.90;;;;;;5055564;28;20394;-79
2023/03/13 00:07:52;;;;;;;;;;;10.90;99.90;;;;;;5055014;28;19924;-79
2023/03/13 00:10:19;;;;;;;;;;;10.90;99.90;;;;;;5051669;28;20422;-78
2023/03/13 00:12:46;;;;;;;;;;;10.80;99.90;;;;;;5072243;28;19927;-79
2023/03/13 00:15:13;;;;;;;;;;;10.90;99.90;;;;;;5057481;28;19920;-79
2023/03/13 00:17:41;;;;;;;;;;;10.90;99.90;;;;;;5056782;28;19924;-81
2023/03/13 00:20:10;;;;;;;;;;;10.90;99.90;;;;;;5059840;28;19924;-81
2023/03/13 00:22:37;;;;;;;;;;;10.90;99.90;;;;;;5080153;28;19931;-82
2023/03/13 00:25:05;;;;;;;;;;;10.90;99.90;;;;;;5064778;28;19935;-81
2023/03/13 00:27:32;;;;;;;;;;;10.80;99.90;;;;;;5064882;28;19979;-82
2023/03/13 00:30:00;;;;;;;;;;;10.80;99.90;;;;;;5065182;28;19928;-81
2023/03/13 00:32:27;;;;;;;;;;;10.80;99.90;;;;;;5097922;28;19935;-82
2023/03/13 00:35:02;;;;;;;;;;;10.90;99.90;;;;;;5084095;28;20451;-82
2023/03/13 00:37:31;;;;;;;;;;;10.90;99.90;;;;;;5068694;28;20046;-83
2023/03/13 00:39:58;;;;;;;;;;;10.90;99.90;;;;;;5060621;28;19931;-82
2023/03/13 00:42:25;;;;;;;;;;;10.90;99.90;;;;;;5093597;28;19925;-82
2023/03/13 00:44:55;;;;;;;;;;;10.90;99.90;;;;;;5067615;28;20006;-79
2023/03/13 00:47:24;;;;;;;;;;;10.90;99.90;;;;;;5066946;28;19928;-82
2023/03/13 00:49:51;;;;;;;;;;;10.80;99.90;;;;;;5061197;28;20291;-81
2023/03/13 00:52:18;;;;;;;;;;;10.80;99.90;;;;;;5064666;28;20290;-82
2023/03/13 00:54:46;;;;;;;;;;;10.80;99.90;;;;;;5083354;28;19924;-81
2023/03/13 00:57:13;;;;;;;;;;;10.80;99.90;;;;;;5069499;28;19924;-81
2023/03/13 00:59:41;;;;;;;;;;;10.80;99.90;;;;;;5077395;28;20007;-81
2023/03/13 01:02:08;;;;;;;;;;;10.80;99.90;;;;;;5082493;28;19920;-81
2023/03/13 01:04:35;;;;;;;;;;;10.70;99.90;;;;;;5079747;28;19937;-81
2023/03/13 01:07:02;;;;;;;;;;;10.70;99.90;;;;;;5098563;28;19919;-81
2023/03/13 01:09:29;;;;;;;;;;;10.70;99.90;;;;;;5095696;28;19924;-83
2023/03/13 01:11:57;;;;;;;;;;;10.70;99.90;;;;;;5096828;28;19923;-84
2023/03/13 01:14:24;;;;;;;;;;;10.60;99.90;;;;;;5095936;28;19924;-82
2023/03/13 01:17:00;;;;;;;;;;;10.60;99.90;;;;;;5081492;28;19923;-83
2023/03/13 01:19:27;;;;;;;;;;;10.60;99.90;;;;;;5086230;28;19927;-82
2023/03/13 01:21:54;;;;;;;;;;;10.60;99.90;;;;;;5108515;28;19927;-83
2023/03/13 01:24:24;;;;;;;;;;;10.60;99.90;;;;;;5064443;28;20019;-85
2023/03/13 01:26:52;;;;;;;;;;;10.60;99.90;;;;;;5090438;28;19963;-84
2023/03/13 01:29:20;;;;;;;;;;;10.50;99.90;;;;;;5069588;28;19924;-83
2023/03/13 01:31:47;;;;;;;;;;;10.60;99.90;;;;;;5067406;28;19924;-84
2023/03/13 01:34:14;;;;;;;;;;;10.60;99.90;;;;;;5081610;28;19932;-81
2023/03/13 01:36:42;;;;;;;;;;;10.60;99.90;;;;;;5083643;28;19928;-84
2023/03/13 01:39:10;;;;;;;;;;;10.60;99.90;;;;;;5087548;28;19986;-82
2023/03/13 01:41:37;;;;;;;;;;;10.60;99.90;;;;;;5087058;28;19921;-82
2023/03/13 01:44:04;;;;;;;;;;;10.60;99.90;;;;;;5075965;28;20331;-82
2023/03/13 01:46:39;;;;;;;;;;;10.50;99.90;;;;;;5066271;28;19924;-81
2023/03/13 01:49:32;;;;;;;;;;;10.50;99.90;;;;;;5082633;28;19970;-84
2023/03/13 01:52:20;;;;;;;;;;;10.40;99.90;;;;;;5074915;28;19942;-81
2023/03/13 01:55:09;;;;;;;;;;;10.30;99.90;;;;;;5062187;28;20018;-82
2023/03/13 01:57:40;;;;;;;;;;;10.30;99.90;;;;;;5069941;28;19908;-83
2023/03/13 02:00:11;;;;;;;;;;;10.30;99.90;;;;;;5066977;28;20368;-81
2023/03/13 02:02:45;;;;;;;;;;;10.20;99.90;;;;;;5072121;28;19952;-81
2023/03/13 02:05:13;;;;;;;;;;;10.10;99.90;;;;;;5072624;28;20380;-81
2023/03/13 02:07:43;;;;;;;;;;;10.10;99.90;;;;;;5086547;28;19984;-82
2023/03/13 02:10:11;;;;;;;;;;;10.00;99.90;;;;;;5068061;28;19992;-81
2023/03/13 02:12:39;;;;;;;;;;;10.00;99.90;;;;;;5083685;28;19931;-82
2023/03/13 02:15:07;;;;;;;;;;;10.00;99.90;;;;;;5080293;28;19995;-82
2023/03/13 02:17:35;;;;;;;;;;;11.00;99.90;;;;;;5063890;28;20030;-82
2023/03/13 02:20:04;;;;;;;;;;;10.00;99.90;;;;;;5064692;28;19954;-81
2023/03/13 02:22:35;;;;;;;;;;;10.00;99.90;;;;;;5080223;28;19973;-83
2023/03/13 02:25:05;;;;;;;;;;;10.00;99.90;;;;;;5077344;28;19932;-82
2023/03/13 02:27:34;;;;;;;;;;;10.00;99.90;;;;;;5070005;28;19984;-83
2023/03/13 02:30:01;;;;;;;;;;;10.00;99.90;;;;;;5077580;28;19923;-80
2023/03/13 02:32:29;;;;;;;;;;;10.00;99.90;;;;;;5072569;28;19924;-80
2023/03/13 02:35:01;;;;;;;;;;;10.00;99.90;;;;;;5089702;28;19930;-80
2023/03/13 02:37:30;;;;;;;;;;;10.00;99.90;;;;;;5080615;28;20372;-81
2023/03/13 02:40:00;;;;;;;;;;;10.00;99.90;;;;;;5081038;28;19920;-82
2023/03/13 02:42:28;;;;;;;;;;;10.10;99.90;;;;;;5072263;28;20018;-81
2023/03/13 02:44:56;;;;;;;;;;;10.10;99.90;;;;;;5073940;28;19924;-81
2023/03/13 02:47:24;;;;;;;;;;;10.10;99.90;;;;;;5072565;28;19931;-81
2023/03/13 02:49:57;;;;;;;;;;;10.10;99.90;;;;;;5083633;28;19920;-82
2023/03/13 02:52:26;;;;;;;;;;;10.20;99.90;;;;;;5076075;28;19920;-83
2023/03/13 02:55:22;;;;;;;;;;;10.20;99.90;;;;;;5064614;28;19950;-85
2023/03/13 02:57:49;;;;;;;;;;;10.20;99.90;;;;;;5066520;28;19928;-86
2023/03/13 03:00:40;;;;;;;;;;;10.30;99.90;;;;;;5081956;28;19944;-85
2023/03/13 03:03:15;;;;;;;;;;;10.30;99.90;;;;;;5023014;28;19932;-86
2023/03/13 03:05:43;;;;;;;;;;;;;;;;;;5003011;28;19957;-85
2023/03/13 03:08:50;;;;;;;;;;;10.30;99.90;;;;;;5075509;28;20018;-86
2023/03/13 03:14:19;;;;;;;;;;;10.40;99.90;;;;;;5081314;28;19920;-80
2023/03/13 03:19:43;;;;;;;;;;;10.50;99.90;;;;;;5086486;28;19957;-84
2023/03/13 03:22:11;;;;;;;;;;;10.50;99.90;;;;;;5083929;28;19954;-84
2023/03/13 03:24:38;;;;;;;;;;;10.50;99.90;;;;;;5071130;28;19970;-83
2023/03/13 03:27:08;;;;;;;;;;;10.60;99.90;;;;;;5070626;28;19928;-84
2023/03/13 03:29:46;;;;;;;;;;;10.60;99.90;;;;;;5067608;28;19970;-83
2023/03/13 03:32:13;;;;;;;;;;;10.60;99.90;;;;;;5087153;28;19926;-83
2023/03/13 03:34:43;;;;;;;;;;;10.70;99.90;;;;;;5075141;28;19920;-83
2023/03/13 03:37:10;;;;;;;;;;;10.70;99.90;;;;;;5066034;28;19924;-83
2023/03/13 03:39:39;;;;;;;;;;;10.70;99.90;;;;;;5070213;28;19920;-83
2023/03/13 03:42:08;;;;;;;;;;;10.80;99.90;;;;;;5077565;28;19924;-83
2023/03/13 03:44:35;;;;;;;;;;;10.80;99.90;;;;;;5077674;28;19925;-83
2023/03/13 03:47:04;;;;;;;;;;;10.80;99.90;;;;;;5075070;28;19925;-83
2023/03/13 03:49:35;;;;;;;;;;;10.90;99.90;;;;;;5067533;28;19995;-83
2023/03/13 03:52:04;;;;;;;;;;;10.90;99.90;;;;;;5094465;28;20002;-82
2023/03/13 03:54:39;;;;;;;;;;;10.90;99.90;;;;;;5051376;28;19998;-82
2023/03/13 03:57:06;;;;;;;;;;;11.00;99.90;;;;;;5064505;28;19954;-80
2023/03/13 03:59:34;;;;;;;;;;;11.00;99.90;;;;;;5076972;28;19940;-82
2023/03/13 04:02:04;;;;;;;;;;;11.00;99.90;;;;;;5077794;28;19943;-83
2023/03/13 04:04:32;;;;;;;;;;;11.10;99.90;;;;;;5085693;28;19991;-83
2023/03/13 04:07:11;;;;;;;;;;;12.30;99.90;;;;;;5085093;28;19979;-82
2023/03/13 04:09:40;;;;;;;;;;;11.10;99.90;;;;;;5067694;28;19946;-83
2023/03/13 04:12:09;;;;;;;;;;;11.20;99.90;;;;;;5079439;28;19924;-82
2023/03/13 04:14:51;;;;;;;;;;;11.20;99.90;;;;;;5067464;28;19920;-83
2023/03/13 04:17:18;;;;;;;;;;;11.30;99.90;;;;;;5066832;28;19924;-83
2023/03/13 04:19:49;;;;;;;;;;;11.40;99.90;;;;;;5066603;28;19951;-84
2023/03/13 04:22:18;;;;;;;;;;;11.40;99.90;;;;;;5072517;28;19925;-84
2023/03/13 04:24:51;;;;;;;;;;;11.50;99.90;;;;;;5087034;28;19951;-83
2023/03/13 04:27:20;;;;;;;;;;;11.50;99.90;;;;;;5067111;28;19921;-83
2023/03/13 04:29:48;;;;;;;;;;;11.50;99.90;;;;;;5061950;28;20005;-84
2023/03/13 04:32:42;;;;;;;;;;;11.70;99.90;;;;;;5065040;28;19920;-83
2023/03/13 04:35:40;;;;;;;;;;;11.60;99.90;;;;;;5078981;28;19927;-84
2023/03/13 04:38:28;;;;;;;;;;;11.70;99.90;;;;;;5076774;28;19930;-84
2023/03/13 04:40:55;;;;;;;;;;;11.70;99.90;;;;;;5103500;28;19955;-84
2023/03/13 04:44:01;;;;;;;;;;;11.80;99.90;;;;;;5006121;28;19925;-85
2023/03/13 04:46:46;;;;;;;;;;;11.80;99.90;;;;;;5006057;28;19928;-85
2023/03/13 04:49:27;;;;;;;;;;;11.90;99.90;;;;;;5042555;28;19924;-86
2023/03/13 04:52:09;;;;;;;;;;;12.00;99.90;;;;;;5073263;28;19924;-84
2023/03/13 04:54:56;;;;;;;;;;;12.00;99.90;;;;;;5078418;28;19947;-84
2023/03/13 04:57:42;;;;;;;;;;;12.10;99.90;;;;;;5074594;28;20648;-84
2023/03/13 05:00:39;;;;;;;;;;;12.10;99.90;;;;;;5016772;28;19972;-85
2023/03/13 05:03:18;;;;;;;;;;;12.20;99.90;;;;;;5081880;28;19927;-84
2023/03/13 05:06:08;;;;;;;;;;;12.20;99.90;;;;;;5086086;28;19923;-84
2023/03/13 05:08:54;;;;;;;;;;;12.30;99.90;;;;;;5065265;28;20299;-84
2023/03/13 05:11:23;;;;;;;;;;;12.30;99.90;;;;;;5092277;28;19951;-84
2023/03/13 05:14:16;;;;;;;;;;;12.40;99.90;;;;;;5052443;28;19984;-82
2023/03/13 05:17:01;;;;;;;;;;;12.40;99.90;;;;;;5097018;28;20176;-82
2023/03/13 05:19:47;;;;;;;;;;;12.50;99.90;;;;;;5098862;28;19958;-82
2023/03/13 05:22:24;;;;;;;;;;;12.50;99.90;;;;;;5073017;28;19921;-82
2023/03/13 05:25:20;;;;;;;;;;;12.50;99.90;;;;;;5016969;28;19925;-80
2023/03/13 05:27:52;;;;;;;;;;;12.50;99.90;;;;;;5077767;28;20031;-80
2023/03/13 05:30:46;;;;;;;;;;;12.60;99.90;;;;;;5049280;28;19935;-81
2023/03/13 05:33:33;;;;;;;;;;;12.60;99.90;;;;;;5064015;28;19924;-81
2023/03/13 05:36:04;;;;;;;;;;;12.60;99.90;;;;;;5092394;28;19927;-81
2023/03/13 05:38:31;;;;;;;;;;;12.60;99.90;;;;;;5085498;28;19934;-81
2023/03/13 05:41:16;;;;;;;;;;;12.60;99.90;;;;;;5089618;28;20423;-81
2023/03/13 05:43:57;;;;;;;;;;;12.70;99.90;;;;;;5066025;28;20271;-81
2023/03/13 05:46:53;;;;;;;;;;;12.70;99.90;;;;;;5041070;28;19921;-81
2023/03/13 05:49:46;;;;;;;;;;;12.70;99.90;;;;;;5045154;28;20319;-81
2023/03/13 05:52:34;;;;;;;;;;;12.80;99.90;;;;;;5082373;28;19920;-81
2023/03/13 05:55:10;;;;;;;;;;;12.80;99.90;;;;;;5083377;28;19942;-83
2023/03/13 05:57:57;;;;;;;;;;;12.80;99.90;;;;;;5084803;28;19927;-82
2023/03/13 06:01:07;;;;;;;;;;;12.80;99.90;;;;;;5031092;28;19921;-86
2023/03/13 06:03:57;;;;;;;;;;;12.80;99.90;;;;;;5030714;28;19936;-86
2023/03/13 06:06:25;;;;;;;;;;;12.80;99.90;;;;;;5045028;28;19920;-81
2023/03/13 06:08:55;;;;;;;;;;;12.90;99.90;;;;;;5068414;28;19955;-83
2023/03/13 06:11:25;;;;;;;;;;;12.90;99.90;;;;;;5062729;28;19924;-83
2023/03/13 06:13:54;;;;;;;;;;;12.90;99.90;;;;;;5078037;28;19920;-85
2023/03/13 06:16:33;;;;;;;;;;;12.90;99.90;;;;;;5046370;28;19928;-81
2023/03/13 06:19:21;;;;;;;;;;;12.90;99.90;;;;;;5070637;28;20007;-82
2023/03/13 06:21:48;;;;;;;;;;;13.00;99.90;;;;;;5068592;28;20005;-80
2023/03/13 06:24:21;;;;;;;;;;;13.00;99.90;;;;;;5078423;28;20391;-85
2023/03/13 06:26:49;;;;;;;;;;;13.00;99.90;;;;;;5072014;28;20398;-80
2023/03/13 06:29:16;;;;;;;;;;;13.10;99.90;;;;;;5100251;28;19969;-81
2023/03/13 06:31:53;;;;;;;;;;;13.10;99.90;;;;;;5062158;28;19920;-82
2023/03/13 06:34:20;;;;;;;;;;;13.10;99.90;;;;;;5060670;28;20395;-87
2023/03/13 06:36:47;;;;;;;;;;;13.20;99.90;;;;;;5058515;28;19990;-83
2023/03/13 06:39:18;;;;;;;;;;;13.20;99.90;;;;;;5061830;28;19921;-85
2023/03/13 06:41:45;;;;;;;;;;;13.20;99.90;;;;;;5073171;28;19964;-83
2023/03/13 06:44:12;;;;;;;;;;;13.20;99.90;;;;;;5074905;28;20446;-84
2023/03/13 06:46:39;;;;;;;;;;;13.20;99.90;;;;;;5061060;28;19931;-84
2023/03/13 06:49:08;;;;;;;;;;;13.20;99.90;;;;;;5073334;28;19920;-83
2023/03/13 06:51:35;;;;;;;;;;;13.30;99.90;;;;;;5083995;28;19924;-83
2023/03/13 06:54:03;;;;;;;;;;;13.30;99.90;;;;;;5063828;28;19970;-83
2023/03/13 06:56:31;;;;;;;;;;;13.30;99.90;;;;;;5095318;28;19928;-83
2023/03/13 06:58:58;;;;;;;;;;;13.40;99.90;;;;;;5072321;28;19928;-83
2023/03/13 07:01:25;;;;;;;;;;;13.40;99.90;;;;;;5100503;28;19995;-82
2023/03/13 07:03:52;;;;;;;;;;;13.50;99.90;;;;;;5094891;28;19920;-82
2023/03/13 07:06:20;;;;;;;;;;;13.50;99.90;;;;;;5075442;28;19963;-84
2023/03/13 07:08:58;;;;;;;;;;;13.50;99.90;;;;;;5064277;28;20280;-82
2023/03/13 07:11:27;;;;;;;;;;;13.60;99.90;;;;;;5083178;28;19935;-82
2023/03/13 07:13:55;;;;;;;;;;;13.60;99.90;;;;;;5080543;28;20065;-83
2023/03/13 07:16:22;;;;;;;;;;;13.60;99.90;;;;;;5065028;28;19924;-83
2023/03/13 07:18:49;;;;;;;;;;;13.70;99.90;;;;;;5058838;28;20031;-85
2023/03/13 07:21:15;;;;;;;;;;;13.70;99.90;;;;;;5074285;28;19928;-82
2023/03/13 07:23:44;;;;;;;;;;;13.80;99.90;;;;;;5076952;28;20417;-82
2023/03/13 07:26:12;;;;;;;;;;;13.80;99.90;;;;;;5075319;28;19920;-80
2023/03/13 07:28:39;;;;;;;;;;;13.90;99.90;;;;;;5070627;28;20274;-80
2023/03/13 07:31:07;;;;;;;;;;;13.90;99.90;;;;;;5068801;28;19931;-80
2023/03/13 07:33:55;;;;;;;;;;;13.90;99.90;;;;;;5057023;28;19924;-88
2023/03/13 07:36:22;;;;;;;;;;;14.00;99.90;;;;;;5080391;28;19924;-85
2023/03/13 07:38:51;;;;;;;;;;;14.00;99.90;;;;;;5057969;28;19925;-86
2023/03/13 07:41:18;;;;;;;;;;;14.00;99.90;;;;;;5069789;28;20405;-86
2023/03/13 07:43:46;;;;;;;;;;;14.10;99.90;;;;;;5075662;28;19923;-86
2023/03/13 07:46:26;;;;;;;;;;;14.10;99.90;;;;;;5077674;28;19935;-87
2023/03/13 07:49:01;;;;;;;;;;;14.10;99.90;;;;;;5056078;28;20053;-86
2023/03/13 07:51:57;;;;;;;;;;;;;;;;;;;;;
2023/03/13 07:54:36;;;;;;;;;;;14.20;99.90;;;;;;5041805;28;19920;-86
2023/03/13 07:57:39;;;;;;;;;;;14.10;99.90;;;;;;5069435;28;20019;-87
2023/03/13 08:00:16;;;;;;;;;;;14.10;99.90;;;;;;5059862;28;19932;-87
2023/03/13 08:03:03;;;;;;;;;;;14.10;99.90;;;;;;5074439;28;19969;-86
2023/03/13 08:08:23;;;;;;;;;;;14.10;99.90;;;;;;5053086;28;19927;-87
2023/03/13 08:10:59;;;;;;;;;;;14.10;99.90;;;;;;5077512;28;20307;-85
2023/03/13 08:13:36;;;;;;;;;;;14.10;99.90;;;;;;5070945;28;19921;-87
2023/03/13 08:16:12;;;;;;;;;;;14.20;99.90;;;;;;5068641;28;19924;-87
2023/03/13 08:18:45;;;;;;;;;;;14.20;99.90;;;;;;5074326;28;20306;-86
2023/03/13 08:21:19;;;;;;;;;;;14.20;99.90;;;;;;5068473;28;19924;-86
2023/03/13 08:23:57;;;;;;;;;;;14.30;99.90;;;;;;5065647;28;20000;-87
2023/03/13 08:26:31;;;;;;;;;;;14.40;99.90;;;;;;5053140;28;19983;-86
2023/03/13 08:29:08;;;;;;;;;;;14.50;99.90;;;;;;5056340;28;19920;-86
2023/03/13 08:31:48;;;;;;;;;;;14.50;99.90;;;;;;5055031;28;19935;-87
2023/03/13 08:34:26;;;;;;;;;;;15.10;99.90;;;;;;5068141;28;20019;-86
2023/03/13 08:39:49;;;;;;;;;;;14.70;99.90;;;;;;5064882;28;20373;-85
2023/03/13 08:42:24;;;;;;;;;;;14.70;99.90;;;;;;5085746;28;20325;-86
2023/03/13 08:45:00;;;;;;;;;;;14.90;99.90;;;;;;5077192;28;19924;-85
2023/03/13 08:47:33;;;;;;;;;;;14.90;99.90;;;;;;5067845;28;20364;-85
2023/03/13 08:50:11;;;;;;;;;;;15.00;99.90;;;;;;5070739;28;19924;-85
2023/03/13 08:52:50;;;;;;;;;;;15.00;99.90;;;;;;5070494;28;20015;-86
2023/03/13 08:55:22;;;;;;;;;;;14.90;99.90;;;;;;5054801;28;19921;-86
2023/03/13 08:57:59;;;;;;;;;;;14.90;99.90;;;;;;5052972;28;19921;-87
2023/03/13 09:00:33;;;;;;;;;;;14.90;99.90;;;;;;5037798;28;19928;-87
2023/03/13 09:03:20;;;;;;;;;;;15.00;99.90;;;;;;5060725;28;19924;-86
2023/03/13 09:05:50;;;;;;;;;;;15.10;99.90;;;;;;5082575;28;19920;-87
2023/03/13 09:08:51;;;;;;;;;;;15.20;99.90;;;;;;5069335;28;19925;-87
2023/03/13 09:11:18;;;;;;;;;;;15.40;99.90;;;;;;5045926;28;19970;-86
2023/03/13 09:13:48;;;;;;;;;;;15.50;99.90;;;;;;5074595;28;20246;-86
2023/03/13 09:16:15;;;;;;;;;;;15.60;99.90;;;;;;5057636;28;19920;-86
2023/03/13 09:18:42;;;;;;;;;;;15.70;99.90;;;;;;5067976;28;19916;-86
2023/03/13 09:21:12;;;;;;;;;;;15.80;99.90;;;;;;5070289;28;19938;-81
2023/03/13 09:23:39;;;;;;;;;;;15.90;99.90;;;;;;5074434;28;19987;-82
2023/03/13 09:26:06;;;;;;;;;;;16.00;99.90;;;;;;5056313;28;19935;-81
2023/03/13 09:28:37;;;;;;;;;;;16.10;99.90;;;;;;5074043;28;19959;-82
2023/03/13 09:31:09;;;;;;;;;;;16.10;99.90;;;;;;5057817;28;19944;-82
2023/03/13 09:33:36;;;;;;;;;;;16.10;99.90;;;;;;5056979;28;20454;-83
2023/03/13 09:36:03;;;;;;;;;;;16.10;99.90;;;;;;5072428;28;19924;-83
2023/03/13 09:38:29;;;;;;;;;;;16.20;99.90;;;;;;5060591;28;20443;-82
2023/03/13 09:41:01;;;;;;;;;;;16.10;99.90;;;;;;5078575;28;19931;-82
2023/03/13 09:43:35;;;;;;;;;;;16.00;99.90;;;;;;5061207;28;19930;-82
2023/03/13 09:46:04;;;;;;;;;;;16.10;99.90;;;;;;5066281;28;20398;-83
2023/03/13 09:48:34;;;;;;;;;;;16.10;99.90;;;;;;5053716;28;19925;-83
2023/03/13 09:51:04;;;;;;;;;;;16.30;99.90;;;;;;5077224;28;19924;-83
2023/03/13 09:53:34;;;;;;;;;;;16.30;99.90;;;;;;5061297;28;19954;-83
2023/03/13 09:56:03;;;;;;;;;;;16.30;99.90;;;;;;5063473;28;20269;-83
2023/03/13 09:58:31;;;;;;;;;;;16.30;99.90;;;;;;5065366;28;20408;-82
2023/03/13 10:01:01;;;;;;;;;;;16.20;99.90;;;;;;5077183;28;19929;-83
2023/03/13 10:03:29;;;;;;;;;;;16.10;99.90;;;;;;5074018;28;19966;-83
2023/03/13 10:06:00;;;;;;;;;;;16.10;99.90;;;;;;5073522;28;19970;-83
2023/03/13 10:08:28;;;;;;;;;;;16.30;99.90;;;;;;5060890;28;20580;-83
2023/03/13 10:10:57;;;;;;;;;;;16.60;99.90;;;;;;5068526;28;19928;-84
2023/03/13 10:13:28;;;;;;;;;;;16.40;99.90;;;;;;5076468;28;19920;-84
2023/03/13 10:15:56;;;;;;;;;;;17.20;99.90;;;;;;5074685;28;20029;-84
2023/03/13 10:18:23;;;;;;;;;;;17.50;99.90;;;;;;5061440;28;19924;-84
2023/03/13 10:20:51;;;;;;;;;;;17.80;99.90;;;;;;5071546;28;19931;-83
2023/03/13 10:23:21;;;;;;;;;;;17.90;99.90;;;;;;5065808;28;19943;-83
2023/03/13 10:25:49;;;;;;;;;;;17.80;99.90;;;;;;5078838;28;20110;-83
2023/03/13 10:28:19;;;;;;;;;;;17.70;99.90;;;;;;5064338;28;19919;-83
2023/03/13 10:30:47;;;;;;;;;;;17.50;99.90;;;;;;5073360;28;19920;-83
2023/03/13 10:33:23;;;;;;;;;;;17.40;99.90;;;;;;5076085;28;20252;-83
2023/03/13 10:35:59;;;;;;;;;;;17.40;99.90;;;;;;5077142;28;19924;-84
2023/03/13 10:38:28;;;;;;;;;;;17.50;99.90;;;;;;5085328;28;19952;-83
2023/03/13 10:40:59;;;;;;;;;;;17.60;99.90;;;;;;5076581;28;19988;-83
2023/03/13 10:43:26;;;;;;;;;;;17.80;99.90;;;;;;5085157;28;19928;-83
2023/03/13 10:45:53;;;;;;;;;;;17.90;99.90;;;;;;5059043;28;20291;-82
2023/03/13 10:48:21;;;;;;;;;;;17.90;99.90;;;;;;5073243;28;19947;-84
2023/03/13 10:50:49;;;;;;;;;;;17.80;99.90;;;;;;5069750;28;20334;-83
2023/03/13 10:53:24;;;;;;;;;;;18.00;99.90;;;;;;5067126;28;19920;-83
2023/03/13 10:55:54;;;;;;;;;;;18.00;99.90;;;;;;5073991;28;19931;-83
2023/03/13 10:58:23;;;;;;;;;;;18.00;99.90;;;;;;5077460;28;20009;-83
2023/03/13 11:00:50;;;;;;;;;;;18.00;99.90;;;;;;5059149;28;19936;-83
2023/03/13 11:03:19;;;;;;;;;;;18.20;99.90;;;;;;5089316;28;20395;-82
2023/03/13 11:05:54;;;;;;;;;;;18.20;99.90;;;;;;5056726;28;19925;-82
2023/03/13 11:08:22;;;;;;;;;;;18.20;99.90;;;;;;5046117;28;19928;-83
2023/03/13 11:10:59;;;;;;;;;;;18.30;99.90;;;;;;5066520;28;20599;-83
2023/03/13 11:13:30;;;;;;;;;;;18.40;99.90;;;;;;5058793;28;19929;-83
2023/03/13 11:15:59;;;;;;;;;;;18.40;99.90;;;;;;5066027;28;19927;-82
2023/03/13 11:18:30;;;;;;;;;;;18.50;99.90;;;;;;5076073;28;20320;-82
2023/03/13 11:20:57;;;;;;;;;;;18.50;99.90;;;;;;5059858;28;19990;-83
2023/03/13 11:23:27;;;;;;;;;;;18.50;99.90;;;;;;5062648;28;19928;-82
2023/03/13 11:26:01;;;;;;;;;;;18.50;99.90;;;;;;5057151;28;20015;-82
2023/03/13 11:28:32;;;;;;;;;;;18.50;99.90;;;;;;5063745;28;19924;-82
2023/03/13 11:31:09;;;;;;;;;;;18.40;99.90;;;;;;5072164;28;19928;-83
2023/03/13 11:33:39;;;;;;;;;;;18.70;99.90;;;;;;5071333;28;19927;-83
2023/03/13 11:36:11;;;;;;;;;;;18.70;99.90;;;;;;5073497;28;19977;-83
2023/03/13 11:38:40;;;;;;;;;;;18.80;99.90;;;;;;5078201;28;20340;-83
2023/03/13 11:41:17;;;;;;;;;;;18.90;99.90;;;;;;5076858;28;19924;-83
2023/03/13 11:43:55;;;;;;;;;;;18.90;99.90;;;;;;5075713;28;19920;-83
2023/03/13 11:46:27;;;;;;;;;;;19.00;99.90;;;;;;5059621;28;20437;-82
2023/03/13 11:49:03;;;;;;;;;;;19.10;99.90;;;;;;5039863;28;20595;-83
2023/03/13 11:51:35;;;;;;;;;;;19.20;99.90;;;;;;5058916;28;20687;-82
2023/03/13 11:54:10;;;;;;;;;;;19.40;99.90;;;;;;5064566;28;19955;-82
2023/03/13 11:56:41;;;;;;;;;;;19.50;99.90;;;;;;5075858;28;19970;-82
2023/03/13 11:59:20;;;;;;;;;;;19.40;99.90;;;;;;5074414;28;19935;-82
2023/03/13 12:01:49;;;;;;;;;;;19.40;99.90;;;;;;5057289;28;19931;-82
2023/03/13 12:04:20;;;;;;;;;;;19.20;99.90;;;;;;5064632;28;19920;-82
2023/03/13 12:06:49;;;;;;;;;;;19.20;99.90;;;;;;5060399;28;19935;-82
2023/03/13 12:09:21;;;;;;;;;;;19.20;99.90;;;;;;5070372;28;20013;-82
2023/03/13 12:11:54;;;;;;;;;;;19.20;99.90;;;;;;5066242;28;19954;-83
2023/03/13 12:14:26;;;;;;;15.30;3.40;;;19.10;99.90;;;;;;5075327;28;19989;-84
2023/03/13 12:16:57;;;;;;;11.63;3.30;;;19.00;99.90;;;;;;5047337;28;20727;-83
2023/03/13 12:19:30;;;;;;;14.03;3.83;;;19.00;99.90;;;;;;5051646;28;20211;-84
2023/03/13 12:22:02;;;;;;;11.17;3.23;;;18.90;99.90;;;;;;5064781;28;20268;-83
2023/03/13 12:24:35;;;;;;;12.63;3.40;;;18.70;99.90;;;;;;5064623;28;20242;-83
2023/03/13 12:27:13;;;;;;;10.97;3.03;;;18.70;99.90;;;;;;5076758;28;20200;-83
2023/03/13 12:29:48;;;;;;;11.87;3.40;;;18.70;99.90;;;;;;5058988;28;20462;-80
2023/03/13 12:32:24;;;;;;;14.67;3.50;;;18.80;99.90;;;;;;5081186;28;20269;-82
2023/03/13 12:34:59;;;;;;;14.57;3.70;;;18.70;99.90;;;;;;5070674;28;20214;-82
2023/03/13 12:37:33;;;;;;;10.67;3.23;;;18.70;99.90;;;;;;5057190;28;20222;-82
2023/03/13 12:40:07;;;;;;;13.00;3.67;;;18.70;99.90;;;;;;5050968;28;20212;-82
2023/03/13 12:42:47;;;;;;;9.77;3.10;;;18.60;99.90;;;;;;5084458;28;20587;-83
2023/03/13 12:45:17;;;;;;;11.13;3.50;;;18.40;99.90;;;;;;5060213;28;20231;-82
2023/03/13 12:48:22;;;;;;;10.63;3.13;;;18.40;99.90;;;;;;5077361;28;20211;-83
2023/03/13 12:51:04;;;;;;;9.43;2.90;;;18.60;99.90;;;;;;5046740;28;20537;-83
2023/03/13 12:54:16;;;;;;;11.33;3.20;;;19.00;99.90;;;;;;5087305;28;20223;-82
2023/03/13 12:56:56;;;;;;;11.20;3.17;;;19.20;99.90;;;;;;5060436;28;20238;-82
2023/03/13 12:59:30;;;;;;;13.33;3.73;;;19.20;99.90;;;;;;5063981;28;20289;-82
2023/03/13 13:01:58;;;;;;;12.00;3.43;;;19.30;99.90;;;;;;5065208;28;20224;-82
2023/03/13 13:04:29;;;;;;;10.63;3.17;;;19.50;99.90;;;;;;5082287;28;20658;-83
2023/03/13 13:06:58;;;;;;;;;;;19.60;99.90;;;;;;5073725;28;20103;-82
2023/03/13 13:09:26;;;;;;;;;;;19.60;99.90;;;;;;5072675;28;19920;-82
2023/03/13 13:11:55;;;;;;;;;;;19.70;99.90;;;;;;5063305;28;19954;-82
2023/03/13 13:15:00;;;;;;;12.80;3.57;;;19.60;99.90;;;;;;5065921;28;21105;-84
2023/03/13 13:18:01;;;;;;;11.70;3.30;;;19.60;99.90;;;;;;5060223;28;20249;-82
2023/03/13 13:20:36;;;;;;;11.83;3.43;;;19.50;99.90;;;;;;5086475;28;20259;-83
2023/03/13 13:23:37;;;;;;;9.33;2.77;;;19.50;99.90;;;;;;5065193;28;20267;-82
2023/03/13 13:26:46;;;;;;;14.17;3.87;;;19.50;99.90;;;;;;5020706;28;20216;-83
2023/03/13 13:29:53;;;;;;;12.97;3.23;;;19.50;99.90;;;;;;5065120;28;20211;-82
2023/03/13 13:32:40;;;;;;;13.43;3.40;;;19.50;99.90;;;;;;5059300;28;20600;-82
2023/03/13 13:35:26;;;;;;;14.33;7.10;;;19.70;99.90;;;;;;5077765;28;20389;-82
2023/03/13 13:38:21;;;;;;;15.03;5.57;;;19.70;99.90;;;;;;5055211;28;20228;-80
2023/03/13 13:41:00;;;;;;;10.97;3.20;;;19.80;99.90;;;;;;5055177;28;20235;-81
2023/03/13 13:43:32;;;;;;;12.60;3.43;;;19.50;99.90;;;;;;5066004;28;21120;-81
2023/03/13 13:46:04;;;;;;;10.50;3.27;;;19.50;99.90;;;;;;5082663;28;20215;-82
2023/03/13 13:48:36;;;;;;;13.10;3.60;;;19.20;99.90;;;;;;5072220;28;20212;-81
2023/03/13 13:51:27;;;;;;;13.03;3.43;;;18.80;99.90;;;;;;5076920;28;20226;-82
2023/03/13 13:53:59;;;;;;;12.40;3.30;;;18.70;99.90;;;;;;5068902;28;20946;-82
2023/03/13 13:56:49;;;;;;;15.47;3.43;;;18.60;99.90;;;;;;5078974;28;20224;-82
2023/03/13 13:59:41;;;;;;;11.60;3.40;;;18.40;99.90;;;;;;5075043;28;20227;-82
2023/03/13 14:02:23;;;;;;;11.00;3.40;;;18.40;99.90;;;;;;5073655;28;20209;-81
2023/03/13 14:05:05;;;;;;;10.73;3.20;;;18.40;99.90;;;;;;5061400;28;20236;-80
2023/03/13 14:07:58;;;;;;;12.10;3.67;;;18.40;99.90;;;;;;5068390;28;20211;-80
2023/03/13 14:10:45;;;;;;;11.33;3.20;;;18.40;99.90;;;;;;5056617;28;20208;-80
2023/03/13 14:13:16;;;;;;;13.80;3.80;;;18.20;99.90;;;;;;5063563;28;20201;-80
2023/03/13 14:15:45;;;;;;;12.33;3.53;;;18.20;99.90;;;;;;5076346;28;20214;-80
2023/03/13 14:18:19;;;;;;;14.87;4.30;;;18.10;99.90;;;;;;5080150;28;20456;-80
2023/03/13 14:21:01;;;;;;;12.27;3.40;;;18.00;99.90;;;;;;5058529;28;20227;-80
2023/03/13 14:26:13;;;;;;;12.73;3.63;;;17.80;99.90;;;;;;5311432;22;20771;-81
2023/03/13 14:28:46;;;;;;;10.63;3.20;;;17.70;99.90;;;;;;5054411;28;20310;-81
2023/03/13 14:31:25;;;;;;;12.13;3.30;;;17.80;99.90;;;;;;5060737;28;20232;-81
2023/03/13 14:33:53;;;;;;;9.60;3.13;;;17.90;99.90;;;;;;5055329;28;20226;-82
2023/03/13 14:36:45;;;;;;;12.53;3.30;;;17.90;99.90;;;;;;5037501;28;20221;-80
2023/03/13 14:39:35;;;;;;;9.87;2.90;;;18.00;99.90;;;;;;5035788;28;20237;-81
2023/03/13 14:42:06;;;;;;;10.53;3.07;;;17.80;99.90;;;;;;5036259;28;20209;-78
2023/03/13 14:44:37;;;;;;;9.27;2.97;;;17.70;99.90;;;;;;5036185;28;20230;-80
2023/03/13 14:47:08;;;;;;;11.00;3.43;;;17.70;99.90;;;;;;5035462;28;20196;-79
2023/03/13 14:49:47;;;;;;;11.23;3.23;;;18.90;99.90;;;;;;5034121;28;20213;-79
2023/03/13 14:52:23;;;;;;;9.60;3.00;;;17.40;99.90;;;;;;5035157;28;20202;-80